sensor_id;sensor_type;location;lat;lon;timestamp;pressure;altitude;pressure_sealevel;temperature;humidity
4570;BME280;2297;51.442;6.996;2023-06-24T00:01:26;101178.69;;;21.85;45.95
4570;BME280;2297;51.442;6.996;2023-06-24T00:03:52;101179.03;;;21.79;46.36
4570;BME280;2297;51.442;6.996;2023-06-24T00:06:19;101181.19;;;21.72;46.35
4570;BME280;2297;51.442;6.996;2023-06-24T00:08:48;101178.41;;;21.74;46.55
4570;BME280;2297;51.442;6.996;2023-06-24T00:11:15;101180.38;;;21.70;46.40
4570;BME280;2297;51.442;6.996;2023-06-24T00:13:42;101175.09;;;21.69;46.59
4570;BME280;2297;51.442;6.996;2023-06-24T00:16:09;101177.06;;;21.65;46.51
4570;BME280;2297;51.442;6.996;2023-06-24T00:18:37;101174.56;;;21.62;46.51
4570;BME280;2297;51.442;6.996;2023-06-24T00:21:07;101173.00;;;21.58;46.59
4570;BME280;2297;51.442;6.996;2023-06-24T00:23:33;101170.38;;;21.56;46.78
4570;BME280;2297;51.442;6.996;2023-06-24T00:26:00;101172.13;;;21.57;46.82
4570;BME280;2297;51.442;6.996;2023-06-24T00:28:27;101165.09;;;21.55;46.80
4570;BME280;2297;51.442;6.996;2023-06-24T00:30:54;101165.09;;;21.55;46.63
4570;BME280;2297;51.442;6.996;2023-06-24T00:33:20;101161.78;;;21.50;46.90
4570;BME280;2297;51.442;6.996;2023-06-24T00:35:48;101157.44;;;21.47;46.87
4570;BME280;2297;51.442;6.996;2023-06-24T00:38:15;101162.09;;;21.43;47.01
4570;BME280;2297;51.442;6.996;2023-06-24T00:40:42;101168.44;;;21.42;46.88
4570;BME280;2297;51.442;6.996;2023-06-24T00:43:08;101166.00;;;21.38;47.20
4570;BME280;2297;51.442;6.996;2023-06-24T00:45:36;101164.16;;;21.38;47.04
4570;BME280;2297;51.442;6.996;2023-06-24T00:48:06;101167.78;;;21.37;46.93
4570;BME280;2297;51.442;6.996;2023-06-24T00:50:33;101168.13;;;21.31;47.23
4570;BME280;2297;51.442;6.996;2023-06-24T00:53:03;101163.69;;;21.30;46.99
4570;BME280;2297;51.442;6.996;2023-06-24T00:55:30;101170.00;;;21.29;47.05
4570;BME280;2297;51.442;6.996;2023-06-24T00:57:56;101171.91;;;21.27;47.18
4570;BME280;2297;51.442;6.996;2023-06-24T01:00:25;101164.00;;;21.24;47.39
4570;BME280;2297;51.442;6.996;2023-06-24T01:02:52;101167.56;;;21.24;47.10
4570;BME280;2297;51.442;6.996;2023-06-24T01:05:19;101166.84;;;21.21;47.16
4570;BME280;2297;51.442;6.996;2023-06-24T01:07:49;101168.91;;;21.16;47.46
4570;BME280;2297;51.442;6.996;2023-06-24T01:10:22;101163.53;;;21.16;47.49
4570;BME280;2297;51.442;6.996;2023-06-24T01:12:49;101161.25;;;21.08;47.05
4570;BME280;2297;51.442;6.996;2023-06-24T01:15:18;101155.03;;;21.07;47.37
4570;BME280;2297;51.442;6.996;2023-06-24T01:17:53;101154.13;;;21.07;47.25
4570;BME280;2297;51.442;6.996;2023-06-24T01:20:25;101151.53;;;21.05;47.04
4570;BME280;2297;51.442;6.996;2023-06-24T01:26:23;101145.06;;;20.92;47.10
4570;BME280;2297;51.442;6.996;2023-06-24T01:29:09;101143.19;;;20.94;47.25
4570;BME280;2297;51.442;6.996;2023-06-24T01:31:44;101145.06;;;20.92;47.17
4570;BME280;2297;51.442;6.996;2023-06-24T01:34:18;101145.22;;;20.89;46.94
4570;BME280;2297;51.442;6.996;2023-06-24T01:36:53;101144.50;;;20.85;47.17
4570;BME280;2297;51.442;6.996;2023-06-24T01:39:23;101149.03;;;20.85;47.32
4570;BME280;2297;51.442;6.996;2023-06-24T01:42:06;101140.34;;;20.80;47.46
4570;BME280;2297;51.442;6.996;2023-06-24T01:44:35;101143.19;;;20.76;47.46
4570;BME280;2297;51.442;6.996;2023-06-24T01:47:05;101140.63;;;20.73;47.37
4570;BME280;2297;51.442;6.996;2023-06-24T01:49:36;101131.81;;;20.71;47.34
4570;BME280;2297;51.442;6.996;2023-06-24T01:52:05;101137.19;;;20.71;46.95
4570;BME280;2297;51.442;6.996;2023-06-24T01:54:35;101134.50;;;20.71;46.85
4570;BME280;2297;51.442;6.996;2023-06-24T01:57:02;101133.84;;;20.66;46.77
4570;BME280;2297;51.442;6.996;2023-06-24T01:59:32;101132.97;;;20.66;47.01
4570;BME280;2297;51.442;6.996;2023-06-24T02:02:00;101135.59;;;20.67;46.75
4570;BME280;2297;51.442;6.996;2023-06-24T02:04:29;101122.38;;;20.63;46.68
4570;BME280;2297;51.442;6.996;2023-06-24T02:06:58;101132.25;;;20.62;46.83
4570;BME280;2297;51.442;6.996;2023-06-24T02:09:26;101126.88;;;20.62;46.54
4570;BME280;2297;51.442;6.996;2023-06-24T02:11:54;101123.47;;;20.58;46.67
4570;BME280;2297;51.442;6.996;2023-06-24T02:14:22;101130.66;;;20.58;46.65
4570;BME280;2297;51.442;6.996;2023-06-24T02:16:49;101129.88;;;20.56;46.47
4570;BME280;2297;51.442;6.996;2023-06-24T02:19:21;101136.09;;;20.56;46.38
4570;BME280;2297;51.442;6.996;2023-06-24T02:21:51;101139.66;;;20.57;46.19
4570;BME280;2297;51.442;6.996;2023-06-24T02:24:18;101141.41;;;20.58;46.05
4570;BME280;2297;51.442;6.996;2023-06-24T02:26:46;101141.41;;;20.58;46.15
4570;BME280;2297;51.442;6.996;2023-06-24T02:29:13;101136.16;;;20.55;46.10
4570;BME280;2297;51.442;6.996;2023-06-24T02:31:40;101128.94;;;20.57;46.24
4570;BME280;2297;51.442;6.996;2023-06-24T02:34:07;101128.13;;;20.55;46.09
4570;BME280;2297;51.442;6.996;2023-06-24T02:36:34;101130.66;;;20.58;46.10
4570;BME280;2297;51.442;6.996;2023-06-24T02:39:02;101122.75;;;20.55;46.24
4570;BME280;2297;51.442;6.996;2023-06-24T02:41:29;101124.66;;;20.53;46.41
4570;BME280;2297;51.442;6.996;2023-06-24T02:43:55;101118.56;;;20.49;46.52
4570;BME280;2297;51.442;6.996;2023-06-24T02:46:22;101124.03;;;20.48;46.64
4570;BME280;2297;51.442;6.996;2023-06-24T02:48:51;101118.66;;;20.48;46.86
4570;BME280;2297;51.442;6.996;2023-06-24T02:51:19;101119.59;;;20.47;46.91
4570;BME280;2297;51.442;6.996;2023-06-24T02:53:46;101122.34;;;20.45;47.02
4570;BME280;2297;51.442;6.996;2023-06-24T02:56:14;101119.81;;;20.42;47.00
4570;BME280;2297;51.442;6.996;2023-06-24T02:58:46;101121.00;;;20.36;47.02
4570;BME280;2297;51.442;6.996;2023-06-24T03:01:13;101120.28;;;20.33;47.13
4570;BME280;2297;51.442;6.996;2023-06-24T03:03:41;101119.56;;;20.29;47.07
4570;BME280;2297;51.442;6.996;2023-06-24T03:06:08;101124.13;;;20.27;47.54
4570;BME280;2297;51.442;6.996;2023-06-24T03:08:37;101126.81;;;20.27;47.56
4570;BME280;2297;51.442;6.996;2023-06-24T03:11:05;101136.59;;;20.28;47.43
4570;BME280;2297;51.442;6.996;2023-06-24T03:13:32;101125.78;;;20.30;47.49
4570;BME280;2297;51.442;6.996;2023-06-24T03:15:59;101128.56;;;20.28;47.40
4570;BME280;2297;51.442;6.996;2023-06-24T03:18:26;101132.97;;;20.29;47.64
4570;BME280;2297;51.442;6.996;2023-06-24T03:20:52;101132.81;;;20.32;47.46
4570;BME280;2297;51.442;6.996;2023-06-24T03:23:19;101133.06;;;20.27;47.73
4570;BME280;2297;51.442;6.996;2023-06-24T03:25:46;101127.53;;;20.31;47.90
4570;BME280;2297;51.442;6.996;2023-06-24T03:28:12;101130.28;;;20.29;47.74
4570;BME280;2297;51.442;6.996;2023-06-24T03:30:40;101123.19;;;20.28;47.71
4570;BME280;2297;51.442;6.996;2023-06-24T03:33:07;101127.53;;;20.31;47.74
4570;BME280;2297;51.442;6.996;2023-06-24T03:35:33;101124.78;;;20.32;47.57
4570;BME280;2297;51.442;6.996;2023-06-24T03:38:00;101122.09;;;20.32;47.60
4570;BME280;2297;51.442;6.996;2023-06-24T03:40:26;101123.84;;;20.33;47.61
4570;BME280;2297;51.442;6.996;2023-06-24T03:42:53;101135.34;;;20.35;47.70
4570;BME280;2297;51.442;6.996;2023-06-24T03:45:20;101134.47;;;20.35;47.35
4570;BME280;2297;51.442;6.996;2023-06-24T03:47:48;101129.13;;;20.35;47.36
4570;BME280;2297;51.442;6.996;2023-06-24T03:50:14;101130.84;;;20.36;47.05
4570;BME280;2297;51.442;6.996;2023-06-24T03:52:41;101133.47;;;20.37;47.43
4570;BME280;2297;51.442;6.996;2023-06-24T03:55:09;101135.13;;;20.40;47.34
4570;BME280;2297;51.442;6.996;2023-06-24T03:57:36;101143.91;;;20.43;47.36
4570;BME280;2297;51.442;6.996;2023-06-24T04:00:03;101147.34;;;20.45;47.10
4570;BME280;2297;51.442;6.996;2023-06-24T04:02:37;101148.94;;;20.50;46.67
4570;BME280;2297;51.442;6.996;2023-06-24T04:05:06;101150.38;;;20.57;46.67
4570;BME280;2297;51.442;6.996;2023-06-24T04:07:33;101157.53;;;20.56;46.64
4570;BME280;2297;51.442;6.996;2023-06-24T04:10:02;101154.00;;;20.56;46.42
4570;BME280;2297;51.442;6.996;2023-06-24T04:12:33;101158.44;;;20.57;46.59
4570;BME280;2297;51.442;6.996;2023-06-24T04:15:00;101157.50;;;20.58;46.41
4570;BME280;2297;51.442;6.996;2023-06-24T04:17:28;101155.44;;;20.63;46.50
4570;BME280;2297;51.442;6.996;2023-06-24T04:19:55;101151.75;;;20.66;46.32
4570;BME280;2297;51.442;6.996;2023-06-24T04:22:23;101157.06;;;20.67;45.73
4570;BME280;2297;51.442;6.996;2023-06-24T04:24:49;101151.53;;;20.70;46.02
4570;BME280;2297;51.442;6.996;2023-06-24T04:27:16;101151.53;;;20.70;45.45
4570;BME280;2297;51.442;6.996;2023-06-24T04:29:42;101144.13;;;20.75;45.54
4570;BME280;2297;51.442;6.996;2023-06-24T04:32:09;101137.00;;;20.74;45.86
4570;BME280;2297;51.442;6.996;2023-06-24T04:34:36;101137.72;;;20.78;45.36
4570;BME280;2297;51.442;6.996;2023-06-24T04:37:03;101146.16;;;20.70;45.46
4570;BME280;2297;51.442;6.996;2023-06-24T04:39:31;101159.38;;;20.56;45.25
4570;BME280;2297;51.442;6.996;2023-06-24T04:41:58;101155.88;;;20.54;45.06
4570;BME280;2297;51.442;6.996;2023-06-24T04:44:25;101159.75;;;20.67;44.44
4570;BME280;2297;51.442;6.996;2023-06-24T04:46:52;101157.50;;;20.58;44.73
4570;BME280;2297;51.442;6.996;2023-06-24T04:49:18;101155.09;;;20.52;44.32
4570;BME280;2297;51.442;6.996;2023-06-24T04:51:45;101162.91;;;20.56;44.51
4570;BME280;2297;51.442;6.996;2023-06-24T04:54:12;101161.56;;;20.48;44.88
4570;BME280;2297;51.442;6.996;2023-06-24T04:56:41;101161.78;;;20.43;45.09
4570;BME280;2297;51.442;6.996;2023-06-24T04:59:08;101170.41;;;20.50;45.09
4570;BME280;2297;51.442;6.996;2023-06-24T05:01:34;101156.69;;;20.56;45.34
4570;BME280;2297;51.442;6.996;2023-06-24T05:04:01;101163.78;;;20.39;46.01
4570;BME280;2297;51.442;6.996;2023-06-24T05:06:28;101159.34;;;20.19;46.99
4570;BME280;2297;51.442;6.996;2023-06-24T05:08:54;101162.47;;;20.29;47.28
4570;BME280;2297;51.442;6.996;2023-06-24T05:11:21;101159.66;;;20.50;46.80
4570;BME280;2297;51.442;6.996;2023-06-24T05:13:49;101165.53;;;20.02;48.76
4570;BME280;2297;51.442;6.996;2023-06-24T05:16:15;101159.66;;;20.13;48.79
4570;BME280;2297;51.442;6.996;2023-06-24T05:18:43;101158.25;;;20.42;48.38
4570;BME280;2297;51.442;6.996;2023-06-24T05:21:10;101155.78;;;20.38;48.86
4570;BME280;2297;51.442;6.996;2023-06-24T05:23:37;101154.09;;;20.35;49.12
4570;BME280;2297;51.442;6.996;2023-06-24T05:26:03;101161.00;;;20.22;49.90
4570;BME280;2297;51.442;6.996;2023-06-24T05:28:30;101147.81;;;20.36;49.95
4570;BME280;2297;51.442;6.996;2023-06-24T05:30:58;101154.34;;;20.31;49.97
4570;BME280;2297;51.442;6.996;2023-06-24T05:33:24;101152.88;;;20.42;49.86
4570;BME280;2297;51.442;6.996;2023-06-24T05:35:51;101157.53;;;20.56;49.61
4570;BME280;2297;51.442;6.996;2023-06-24T05:38:18;101162.16;;;20.35;50.34
4570;BME280;2297;51.442;6.996;2023-06-24T05:40:44;101162.44;;;20.67;49.55
4570;BME280;2297;51.442;6.996;2023-06-24T05:43:11;101158.44;;;20.57;49.95
4570;BME280;2297;51.442;6.996;2023-06-24T05:45:37;101162.56;;;20.64;49.69
4570;BME280;2297;51.442;6.996;2023-06-24T05:48:06;101160.97;;;20.60;49.93
4570;BME280;2297;51.442;6.996;2023-06-24T05:50:32;101157.34;;;20.42;50.54
4570;BME280;2297;51.442;6.996;2023-06-24T05:52:59;101164.19;;;20.49;50.58
4570;BME280;2297;51.442;6.996;2023-06-24T05:55:25;101161.41;;;20.51;50.71
4570;BME280;2297;51.442;6.996;2023-06-24T05:57:52;101155.88;;;20.54;50.43
4570;BME280;2297;51.442;6.996;2023-06-24T06:00:19;101162.81;;;20.40;51.16
4570;BME280;2297;51.442;6.996;2023-06-24T06:02:45;101161.13;;;20.38;51.04
4570;BME280;2297;51.442;6.996;2023-06-24T06:05:13;101160.88;;;20.25;51.40
4570;BME280;2297;51.442;6.996;2023-06-24T06:07:40;101167.56;;;20.16;51.57
4570;BME280;2297;51.442;6.996;2023-06-24T06:10:08;101163.91;;;20.36;51.13
4570;BME280;2297;51.442;6.996;2023-06-24T06:12:36;101161.25;;;20.54;50.84
4570;BME280;2297;51.442;6.996;2023-06-24T06:15:03;101163.00;;;20.74;50.65
4570;BME280;2297;51.442;6.996;2023-06-24T06:17:29;101176.63;;;20.69;50.81
4570;BME280;2297;51.442;6.996;2023-06-24T06:19:56;101172.84;;;20.73;51.00
4570;BME280;2297;51.442;6.996;2023-06-24T06:22:24;101181.47;;;20.61;51.50
4570;BME280;2297;51.442;6.996;2023-06-24T06:24:50;101175.44;;;20.75;51.42
4570;BME280;2297;51.442;6.996;2023-06-24T06:27:17;101180.63;;;20.41;52.61
4570;BME280;2297;51.442;6.996;2023-06-24T06:29:44;101192.38;;;20.58;52.37
4570;BME280;2297;51.442;6.996;2023-06-24T06:32:10;101186.03;;;20.59;52.73
4570;BME280;2297;51.442;6.996;2023-06-24T06:34:37;101185.31;;;20.74;52.42
4570;BME280;2297;51.442;6.996;2023-06-24T06:37:04;101183.81;;;20.69;52.84
4570;BME280;2297;51.442;6.996;2023-06-24T06:39:32;101189.28;;;20.85;52.62
4570;BME280;2297;51.442;6.996;2023-06-24T06:41:59;101190.06;;;20.87;52.85
4570;BME280;2297;51.442;6.996;2023-06-24T06:44:25;101194.69;;;20.66;53.58
4570;BME280;2297;51.442;6.996;2023-06-24T06:46:52;101190.97;;;20.68;53.46
4570;BME280;2297;51.442;6.996;2023-06-24T06:49:19;101199.22;;;20.83;53.19
4570;BME280;2297;51.442;6.996;2023-06-24T06:51:45;101198.75;;;20.92;53.10
4570;BME280;2297;51.442;6.996;2023-06-24T06:54:12;101203.00;;;20.96;52.97
4570;BME280;2297;51.442;6.996;2023-06-24T06:56:40;101207.53;;;21.13;52.77
4570;BME280;2297;51.442;6.996;2023-06-24T06:59:06;101201.69;;;21.22;52.47
4570;BME280;2297;51.442;6.996;2023-06-24T07:01:33;101204.47;;;21.38;52.26
4570;BME280;2297;51.442;6.996;2023-06-24T07:03:59;101209.44;;;21.28;52.55
4570;BME280;2297;51.442;6.996;2023-06-24T07:06:26;101206.97;;;21.06;53.48
4570;BME280;2297;51.442;6.996;2023-06-24T07:08:52;101205.31;;;21.21;53.12
4570;BME280;2297;51.442;6.996;2023-06-24T07:11:19;101212.84;;;21.32;52.94
4570;BME280;2297;51.442;6.996;2023-06-24T07:13:47;101218.69;;;21.40;52.94
4570;BME280;2297;51.442;6.996;2023-06-24T07:16:16;101213.91;;;21.28;53.11
4570;BME280;2297;51.442;6.996;2023-06-24T07:18:42;101212.13;;;21.28;52.67
4570;BME280;2297;51.442;6.996;2023-06-24T07:21:09;101213.69;;;21.15;52.96
4570;BME280;2297;51.442;6.996;2023-06-24T07:23:36;101223.84;;;20.91;53.77
4570;BME280;2297;51.442;6.996;2023-06-24T07:26:02;101221.81;;;20.96;53.90
4570;BME280;2297;51.442;6.996;2023-06-24T07:28:29;101213.16;;;21.08;53.40
4570;BME280;2297;51.442;6.996;2023-06-24T07:30:57;101221.34;;;21.05;53.48
4570;BME280;2297;51.442;6.996;2023-06-24T07:33:23;101221.81;;;20.96;53.76
4570;BME280;2297;51.442;6.996;2023-06-24T07:35:50;101219.63;;;21.04;53.94
4570;BME280;2297;51.442;6.996;2023-06-24T07:38:17;101216.44;;;20.96;54.36
4570;BME280;2297;51.442;6.996;2023-06-24T07:40:44;101217.97;;;21.37;53.60
4570;BME280;2297;51.442;6.996;2023-06-24T07:43:10;101216.47;;;21.49;52.89
4570;BME280;2297;51.442;6.996;2023-06-24T07:45:37;101211.75;;;21.36;53.23
4570;BME280;2297;51.442;6.996;2023-06-24T07:48:05;101218.75;;;21.04;54.14
4570;BME280;2297;51.442;6.996;2023-06-24T07:50:33;101222.66;;;21.51;53.18
4570;BME280;2297;51.442;6.996;2023-06-24T07:52:59;101228.94;;;21.67;52.72
4570;BME280;2297;51.442;6.996;2023-06-24T07:55:26;101224.88;;;21.76;52.18
4570;BME280;2297;51.442;6.996;2023-06-24T07:57:52;101218.50;;;21.61;52.05
4570;BME280;2297;51.442;6.996;2023-06-24T08:00:19;101215.44;;;21.85;51.78
4570;BME280;2297;51.442;6.996;2023-06-24T08:02:45;101228.13;;;21.83;51.90
4570;BME280;2297;51.442;6.996;2023-06-24T08:05:13;101226.00;;;22.05;51.33
4570;BME280;2297;51.442;6.996;2023-06-24T08:07:40;101225.13;;;22.05;50.56
4570;BME280;2297;51.442;6.996;2023-06-24T08:10:07;101224.44;;;21.84;51.90
4570;BME280;2297;51.442;6.996;2023-06-24T08:12:34;101222.19;;;21.76;51.63
4570;BME280;2297;51.442;6.996;2023-06-24T08:15:00;101224.34;;;21.52;51.59
4570;BME280;2297;51.442;6.996;2023-06-24T08:17:27;101228.16;;;21.13;52.33
4570;BME280;2297;51.442;6.996;2023-06-24T08:19:54;101228.75;;;21.70;50.27
4570;BME280;2297;51.442;6.996;2023-06-24T08:22:22;101216.38;;;21.84;50.90
4570;BME280;2297;51.442;6.996;2023-06-24T08:24:48;101225.25;;;22.35;49.60
4570;BME280;2297;51.442;6.996;2023-06-24T08:27:15;101228.81;;;22.36;49.20
4570;BME280;2297;51.442;6.996;2023-06-24T08:29:42;101228.03;;;22.34;49.20
4570;BME280;2297;51.442;6.996;2023-06-24T08:32:09;101220.03;;;22.64;48.40
4570;BME280;2297;51.442;6.996;2023-06-24T08:34:36;101217.44;;;22.47;48.71
4570;BME280;2297;51.442;6.996;2023-06-24T08:37:03;101216.13;;;22.70;48.35
4570;BME280;2297;51.442;6.996;2023-06-24T08:39:31;101205.25;;;22.55;48.57
4570;BME280;2297;51.442;6.996;2023-06-24T08:41:57;101214.03;;;22.75;48.06
4570;BME280;2297;51.442;6.996;2023-06-24T08:44:24;101211.59;;;22.86;47.71
4570;BME280;2297;51.442;6.996;2023-06-24T08:46:50;101209.72;;;22.72;45.47
4570;BME280;2297;51.442;6.996;2023-06-24T08:49:27;101209.22;;;22.96;45.31
4570;BME280;2297;51.442;6.996;2023-06-24T08:52:00;101214.84;;;23.07;44.56
4570;BME280;2297;51.442;6.996;2023-06-24T08:54:27;101210.00;;;22.68;44.50
4570;BME280;2297;51.442;6.996;2023-06-24T08:56:59;101212.56;;;22.85;44.53
4570;BME280;2297;51.442;6.996;2023-06-24T08:59:26;101210.22;;;23.09;43.45
4570;BME280;2297;51.442;6.996;2023-06-24T09:01:53;101213.53;;;23.29;43.20
4570;BME280;2297;51.442;6.996;2023-06-24T09:04:20;101220.44;;;23.19;41.74
4570;BME280;2297;51.442;6.996;2023-06-24T09:06:46;101209.56;;;22.90;41.28
4570;BME280;2297;51.442;6.996;2023-06-24T09:09:19;101209.66;;;23.19;41.56
4570;BME280;2297;51.442;6.996;2023-06-24T09:11:53;101213.00;;;23.08;40.18
4570;BME280;2297;51.442;6.996;2023-06-24T09:14:21;101210.13;;;23.41;39.71
4570;BME280;2297;51.442;6.996;2023-06-24T09:16:52;101198.03;;;23.63;38.44
4570;BME280;2297;51.442;6.996;2023-06-24T09:19:20;101203.50;;;23.76;38.66
4570;BME280;2297;51.442;6.996;2023-06-24T09:21:47;101198.78;;;23.65;38.41
4570;BME280;2297;51.442;6.996;2023-06-24T09:24:14;101198.59;;;23.83;38.12
4570;BME280;2297;51.442;6.996;2023-06-24T09:26:42;101192.44;;;23.66;37.52
4570;BME280;2297;51.442;6.996;2023-06-24T09:29:10;101186.25;;;23.64;37.79
4570;BME280;2297;51.442;6.996;2023-06-24T09:31:46;101188.59;;;23.70;37.36
4570;BME280;2297;51.442;6.996;2023-06-24T09:34:13;101176.84;;;23.86;36.89
4570;BME280;2297;51.442;6.996;2023-06-24T09:36:42;101187.06;;;24.09;37.14
4570;BME280;2297;51.442;6.996;2023-06-24T09:39:09;101184.53;;;24.06;35.88
4570;BME280;2297;51.442;6.996;2023-06-24T09:41:40;101185.13;;;23.97;36.61
4570;BME280;2297;51.442;6.996;2023-06-24T09:44:08;101169.88;;;24.11;36.45
4570;BME280;2297;51.442;6.996;2023-06-24T09:46:35;101169.28;;;24.20;36.50
4570;BME280;2297;51.442;6.996;2023-06-24T09:49:04;101173.53;;;24.24;36.48
4570;BME280;2297;51.442;6.996;2023-06-24T09:51:32;101170.34;;;24.17;36.56
4570;BME280;2297;51.442;6.996;2023-06-24T09:54:02;101185.06;;;24.26;35.48
4570;BME280;2297;51.442;6.996;2023-06-24T09:56:31;101179.91;;;23.94;34.31
4570;BME280;2297;51.442;6.996;2023-06-24T09:58:58;101174.72;;;23.91;35.06
4570;BME280;2297;51.442;6.996;2023-06-24T10:01:24;101175.25;;;24.25;34.71
4570;BME280;2297;51.442;6.996;2023-06-24T10:03:51;101169.28;;;24.20;34.46
4570;BME280;2297;51.442;6.996;2023-06-24T10:06:19;101154.41;;;24.54;33.90
4570;BME280;2297;51.442;6.996;2023-06-24T10:08:46;101151.94;;;24.51;33.64
4570;BME280;2297;51.442;6.996;2023-06-24T10:11:13;101164.09;;;24.58;33.29
4570;BME280;2297;51.442;6.996;2023-06-24T10:13:40;101166.59;;;24.20;34.15
4570;BME280;2297;51.442;6.996;2023-06-24T10:16:06;101156.25;;;24.54;33.03
4570;BME280;2297;51.442;6.996;2023-06-24T10:18:34;101149.56;;;24.47;32.22
4570;BME280;2297;51.442;6.996;2023-06-24T10:21:01;101150.91;;;24.39;32.12
4570;BME280;2297;51.442;6.996;2023-06-24T10:23:33;101154.78;;;23.93;30.66
4570;BME280;2297;51.442;6.996;2023-06-24T10:26:00;101149.75;;;24.43;29.70
4570;BME280;2297;51.442;6.996;2023-06-24T10:28:27;101132.22;;;24.36;30.24
4570;BME280;2297;51.442;6.996;2023-06-24T10:30:56;101142.44;;;24.86;30.59
4570;BME280;2297;51.442;6.996;2023-06-24T10:33:24;101133.84;;;25.06;30.71
4570;BME280;2297;51.442;6.996;2023-06-24T10:35:50;101122.88;;;24.82;27.46
4570;BME280;2297;51.442;6.996;2023-06-24T10:38:18;101133.66;;;24.69;26.50
4570;BME280;2297;51.442;6.996;2023-06-24T10:40:49;101121.91;;;24.83;28.16
4570;BME280;2297;51.442;6.996;2023-06-24T10:43:26;101120.06;;;24.71;28.12
4570;BME280;2297;51.442;6.996;2023-06-24T10:45:55;101119.88;;;25.13;28.84
4570;BME280;2297;51.442;6.996;2023-06-24T10:48:22;101113.84;;;25.22;29.46
4570;BME280;2297;51.442;6.996;2023-06-24T10:50:49;101121.09;;;25.21;29.31
4570;BME280;2297;51.442;6.996;2023-06-24T10:53:16;101116.13;;;25.28;29.07
4570;BME280;2297;51.442;6.996;2023-06-24T10:55:43;101112.22;;;25.06;28.78
4570;BME280;2297;51.442;6.996;2023-06-24T10:58:13;101116.78;;;25.32;28.88
4570;BME280;2297;51.442;6.996;2023-06-24T11:00:41;101112.97;;;25.60;29.60
4570;BME280;2297;51.442;6.996;2023-06-24T11:03:09;101100.22;;;25.49;30.84
4570;BME280;2297;51.442;6.996;2023-06-24T11:05:38;101103.28;;;25.19;30.53
4570;BME280;2297;51.442;6.996;2023-06-24T11:08:07;101103.91;;;25.35;30.81
4570;BME280;2297;51.442;6.996;2023-06-24T11:10:41;101104.78;;;25.49;30.20
4570;BME280;2297;51.442;6.996;2023-06-24T11:13:08;101096.28;;;25.79;29.73
4570;BME280;2297;51.442;6.996;2023-06-24T11:15:37;101104.50;;;25.78;28.11
4570;BME280;2297;51.442;6.996;2023-06-24T11:18:04;101104.31;;;25.81;27.87
4570;BME280;2297;51.442;6.996;2023-06-24T11:20:31;101101.72;;;25.53;27.91
4570;BME280;2297;51.442;6.996;2023-06-24T11:22:57;101103.47;;;25.41;28.62
4570;BME280;2297;51.442;6.996;2023-06-24T11:25:24;101098.47;;;25.61;28.59
4570;BME280;2297;51.442;6.996;2023-06-24T11:27:51;101097.97;;;25.93;28.80
4570;BME280;2297;51.442;6.996;2023-06-24T11:30:18;101088.56;;;25.23;28.73
4570;BME280;2297;51.442;6.996;2023-06-24T11:32:46;101087.56;;;25.50;27.60
4570;BME280;2297;51.442;6.996;2023-06-24T11:35:15;101090.53;;;25.71;26.81
4570;BME280;2297;51.442;6.996;2023-06-24T11:37:43;101093.84;;;25.37;25.99
4570;BME280;2297;51.442;6.996;2023-06-24T11:40:10;101098.97;;;25.79;24.35
4570;BME280;2297;51.442;6.996;2023-06-24T11:42:39;101095.25;;;25.43;24.19
4570;BME280;2297;51.442;6.996;2023-06-24T11:45:07;101089.34;;;25.88;24.20
4570;BME280;2297;51.442;6.996;2023-06-24T11:47:35;101090.66;;;25.69;25.70
4570;BME280;2297;51.442;6.996;2023-06-24T11:50:05;101080.81;;;26.05;26.42
4570;BME280;2297;51.442;6.996;2023-06-24T11:52:32;101088.41;;;26.00;26.57
4570;BME280;2297;51.442;6.996;2023-06-24T11:54:59;101085.84;;;26.23;27.07
4570;BME280;2297;51.442;6.996;2023-06-24T11:57:47;101083.97;;;26.36;26.53
4570;BME280;2297;51.442;6.996;2023-06-24T12:00:15;101097.53;;;25.99;27.81
4570;BME280;2297;51.442;6.996;2023-06-24T12:02:42;101078.13;;;26.30;28.34
4570;BME280;2297;51.442;6.996;2023-06-24T12:05:10;101081.53;;;26.45;27.74
4570;BME280;2297;51.442;6.996;2023-06-24T12:07:37;101077.84;;;26.46;29.96
4570;BME280;2297;51.442;6.996;2023-06-24T12:10:04;101064.19;;;26.47;28.73
4570;BME280;2297;51.442;6.996;2023-06-24T12:12:31;101068.28;;;26.04;28.86
4570;BME280;2297;51.442;6.996;2023-06-24T12:14:58;101080.63;;;26.68;28.19
4570;BME280;2297;51.442;6.996;2023-06-24T12:17:24;101062.59;;;26.56;27.53
4570;BME280;2297;51.442;6.996;2023-06-24T12:19:51;101060.44;;;26.72;27.00
4570;BME280;2297;51.442;6.996;2023-06-24T12:22:22;101055.81;;;26.50;26.19
4570;BME280;2297;51.442;6.996;2023-06-24T12:24:48;101054.13;;;26.61;25.71
4570;BME280;2297;51.442;6.996;2023-06-24T12:27:15;101062.78;;;26.66;25.64
4570;BME280;2297;51.442;6.996;2023-06-24T12:29:41;101054.13;;;26.61;25.96
4570;BME280;2297;51.442;6.996;2023-06-24T12:32:08;101047.44;;;27.12;25.98
4570;BME280;2297;51.442;6.996;2023-06-24T12:34:35;101042.53;;;27.28;25.71
4570;BME280;2297;51.442;6.996;2023-06-24T12:37:01;101037.22;;;27.38;25.37
4570;BME280;2297;51.442;6.996;2023-06-24T12:39:29;101041.31;;;27.10;26.18
4570;BME280;2297;51.442;6.996;2023-06-24T12:41:56;101038.09;;;27.38;25.33
4570;BME280;2297;51.442;6.996;2023-06-24T12:44:22;101041.06;;;27.24;24.87
4570;BME280;2297;51.442;6.996;2023-06-24T12:46:49;101038.94;;;27.39;24.42
4570;BME280;2297;51.442;6.996;2023-06-24T12:49:16;101040.44;;;27.20;24.99
4570;BME280;2297;51.442;6.996;2023-06-24T12:51:42;101036.38;;;27.60;24.68
4570;BME280;2297;51.442;6.996;2023-06-24T12:54:09;101032.31;;;27.54;24.84
4570;BME280;2297;51.442;6.996;2023-06-24T12:56:37;101045.97;;;27.76;24.74
4570;BME280;2297;51.442;6.996;2023-06-24T12:59:03;101040.97;;;27.92;24.58
4570;BME280;2297;51.442;6.996;2023-06-24T13:01:31;101030.63;;;27.86;25.01
4570;BME280;2297;51.442;6.996;2023-06-24T13:03:57;101046.47;;;27.69;25.54
4570;BME280;2297;51.442;6.996;2023-06-24T13:06:24;101037.84;;;27.64;24.73
4570;BME280;2297;51.442;6.996;2023-06-24T13:08:51;101044.94;;;27.88;25.02
4570;BME280;2297;51.442;6.996;2023-06-24T13:11:18;101029.59;;;27.98;24.93
4570;BME280;2297;51.442;6.996;2023-06-24T13:13:46;101036.44;;;28.25;25.10
4570;BME280;2297;51.442;6.996;2023-06-24T13:16:12;101040.06;;;28.14;24.28